createdAt,value
2023-03-25T00:00:43.771Z,981.32
2023-03-25T00:01:43.794Z,981.34
2023-03-25T00:02:43.766Z,981.38
2023-03-25T00:03:44.401Z,981.36
2023-03-25T00:04:43.753Z,981.36
2023-03-25T00:05:43.697Z,981.36
2023-03-25T00:06:43.692Z,981.40
2023-03-25T00:07:43.666Z,981.46
2023-03-25T00:08:43.669Z,981.50
2023-03-25T00:09:43.652Z,981.52
2023-03-25T00:10:43.884Z,981.50
2023-03-25T00:11:43.621Z,981.48
2023-03-25T00:12:43.617Z,981.46
2023-03-25T00:13:43.610Z,981.40
2023-03-25T00:14:43.597Z,981.44
2023-03-25T00:15:43.569Z,981.46
2023-03-25T00:16:43.584Z,981.44
2023-03-25T00:17:43.566Z,981.50
2023-03-25T00:18:43.531Z,981.54
2023-03-25T00:19:43.532Z,981.56
2023-03-25T00:20:44.158Z,981.56
2023-03-25T00:21:44.156Z,981.58
2023-03-25T00:22:43.469Z,981.58
2023-03-25T00:23:43.454Z,981.60
2023-03-25T00:24:42.804Z,981.58
2023-03-25T00:25:43.440Z,981.60
2023-03-25T00:26:43.424Z,981.58
2023-03-25T00:27:43.378Z,981.62
2023-03-25T00:28:42.668Z,981.64
2023-03-25T00:29:43.382Z,981.68
2023-03-25T00:30:43.375Z,981.68
2023-03-25T00:31:43.354Z,981.70
2023-03-25T00:32:43.122Z,981.72
2023-03-25T00:33:43.138Z,981.75
2023-03-25T00:34:43.319Z,981.79
2023-03-25T00:35:43.188Z,981.89
2023-03-25T00:36:43.276Z,981.91
2023-03-25T00:37:43.257Z,981.95
2023-03-25T00:38:43.779Z,982.03
2023-03-25T00:39:43.156Z,982.05
2023-03-25T00:40:42.983Z,982.09
2023-03-25T00:41:43.138Z,982.11
2023-03-25T00:42:43.176Z,982.11
2023-03-25T00:43:43.202Z,982.05
2023-03-25T00:44:43.157Z,981.97
2023-03-25T00:45:43.887Z,981.95
2023-03-25T00:46:43.906Z,981.85
2023-03-25T00:47:43.161Z,981.83
2023-03-25T00:48:43.838Z,981.81
2023-03-25T00:49:43.835Z,981.74
2023-03-25T00:50:43.814Z,981.66
2023-03-25T00:51:52.261Z,981.54
2023-03-25T00:52:44.058Z,981.44
2023-03-25T00:53:43.769Z,981.44
2023-03-25T00:54:43.781Z,981.50
2023-03-25T00:55:43.760Z,981.54
2023-03-25T00:56:43.787Z,981.56
2023-03-25T00:57:42.976Z,981.56
2023-03-25T00:58:43.736Z,981.62
2023-03-25T00:59:43.691Z,981.62
2023-03-25T01:00:43.680Z,981.62
2023-03-25T01:01:43.718Z,981.58
2023-03-25T01:02:43.795Z,981.50
2023-03-25T01:03:42.981Z,981.42
2023-03-25T01:04:43.170Z,981.44
2023-03-25T01:05:42.891Z,981.50
2023-03-25T01:06:42.873Z,981.54
2023-03-25T01:07:42.873Z,981.56
2023-03-25T01:08:43.530Z,981.56
2023-03-25T01:09:42.885Z,981.60
2023-03-25T01:10:42.837Z,981.62
2023-03-25T01:11:43.494Z,981.62
2023-03-25T01:12:42.783Z,981.60
2023-03-25T01:13:42.801Z,981.64
2023-03-25T01:14:42.764Z,981.64
2023-03-25T01:15:43.488Z,981.64
2023-03-25T01:16:42.748Z,981.62
2023-03-25T01:17:42.718Z,981.60
2023-03-25T01:18:42.740Z,981.56
2023-03-25T01:19:42.710Z,981.56
2023-03-25T01:20:42.691Z,981.54
2023-03-25T01:21:42.683Z,981.56
2023-03-25T01:22:43.342Z,981.56
2023-03-25T01:23:42.643Z,981.58
2023-03-25T01:24:42.642Z,981.58
2023-03-25T01:25:42.613Z,981.62
2023-03-25T01:26:43.270Z,981.62
2023-03-25T01:27:42.573Z,981.62
2023-03-25T01:28:42.576Z,981.60
2023-03-25T01:29:42.198Z,981.58
2023-03-25T01:30:42.569Z,981.58
2023-03-25T01:31:42.141Z,981.56
2023-03-25T01:32:42.540Z,981.54
2023-03-25T01:33:42.526Z,981.54
2023-03-25T01:34:42.493Z,981.58
2023-03-25T01:35:42.219Z,981.58
2023-03-25T01:36:42.207Z,981.54
2023-03-25T01:37:42.195Z,981.60
2023-03-25T01:38:42.444Z,981.58
2023-03-25T01:39:42.220Z,981.58
2023-03-25T01:40:42.207Z,981.60
2023-03-25T01:41:49.091Z,981.62
2023-03-25T01:42:43.375Z,981.60
2023-03-25T01:43:42.379Z,981.64
2023-03-25T01:44:41.649Z,981.62
2023-03-25T01:45:42.411Z,981.62
2023-03-25T01:46:42.344Z,981.66
2023-03-25T01:47:41.788Z,981.72
2023-03-25T01:48:42.316Z,981.75
2023-03-25T01:49:43.021Z,981.75
2023-03-25T01:50:42.301Z,981.81
2023-03-25T01:51:42.275Z,981.81
2023-03-25T01:52:41.929Z,981.81
2023-03-25T01:53:42.246Z,981.83
2023-03-25T01:54:42.005Z,981.83
2023-03-25T01:55:42.216Z,981.83
2023-03-25T01:56:42.231Z,981.87
2023-03-25T01:57:42.206Z,981.87
2023-03-25T01:58:42.192Z,981.83
2023-03-25T01:59:42.168Z,981.81
2023-03-25T02:00:42.195Z,981.81
2023-03-25T02:01:42.888Z,981.79
2023-03-25T02:02:42.136Z,981.81
2023-03-25T02:03:41.472Z,981.83
2023-03-25T02:04:42.096Z,981.79
2023-03-25T02:05:42.758Z,981.77
2023-03-25T02:06:42.067Z,981.81
2023-03-25T02:07:43.138Z,981.83
2023-03-25T02:08:41.340Z,981.81
2023-03-25T02:09:42.030Z,981.85
2023-03-25T02:10:42.015Z,981.83
2023-03-25T02:11:42.001Z,981.83
2023-03-25T02:12:41.985Z,981.83
2023-03-25T02:13:41.948Z,981.79
2023-03-25T02:14:41.956Z,981.85
2023-03-25T02:15:41.962Z,981.87
2023-03-25T02:16:41.198Z,981.89
2023-03-25T02:17:41.959Z,981.87
2023-03-25T02:18:41.901Z,981.89
2023-03-25T02:19:41.230Z,981.89
2023-03-25T02:20:41.874Z,981.87
2023-03-25T02:21:42.550Z,981.85
2023-03-25T02:22:41.847Z,981.83
2023-03-25T02:23:42.530Z,981.81
2023-03-25T02:24:41.869Z,981.83
2023-03-25T02:25:41.818Z,981.85
2023-03-25T02:26:41.822Z,981.83
2023-03-25T02:27:41.055Z,981.79
2023-03-25T02:28:41.757Z,981.79
2023-03-25T02:29:41.774Z,981.74
2023-03-25T02:30:41.747Z,981.74
2023-03-25T02:31:41.810Z,981.70
2023-03-25T02:32:41.018Z,981.70
2023-03-25T02:33:41.728Z,981.74
2023-03-25T02:34:42.371Z,981.74
2023-03-25T02:35:40.982Z,981.79
2023-03-25T02:36:41.668Z,981.77
2023-03-25T02:37:41.647Z,981.75
2023-03-25T02:38:41.665Z,981.79
2023-03-25T02:39:41.627Z,981.79
2023-03-25T02:40:41.608Z,981.74
2023-03-25T02:41:42.275Z,981.75
2023-03-25T02:42:41.590Z,981.77
2023-03-25T02:43:40.862Z,981.75
2023-03-25T02:44:41.578Z,981.75
2023-03-25T02:45:41.614Z,981.77
2023-03-25T02:46:41.541Z,981.75
2023-03-25T02:47:42.272Z,981.75
2023-03-25T02:48:41.482Z,981.72
2023-03-25T02:49:41.265Z,981.70
2023-03-25T02:50:41.267Z,981.72
2023-03-25T02:51:41.258Z,981.70
2023-03-25T02:52:41.466Z,981.68
2023-03-25T02:53:42.180Z,981.72
2023-03-25T02:54:41.266Z,981.70
2023-03-25T02:55:41.431Z,981.68
2023-03-25T02:56:40.691Z,981.66
2023-03-25T02:57:41.265Z,981.64
2023-03-25T02:58:41.368Z,981.70
2023-03-25T02:59:41.264Z,981.72
2023-03-25T03:00:41.340Z,981.68
2023-03-25T03:01:41.386Z,981.68
2023-03-25T03:02:41.346Z,981.64
2023-03-25T03:03:41.987Z,981.60
2023-03-25T03:04:41.291Z,981.58
2023-03-25T03:05:41.321Z,981.58
2023-03-25T03:06:41.258Z,981.62
2023-03-25T03:07:40.530Z,981.64
2023-03-25T03:08:41.218Z,981.58
2023-03-25T03:09:41.221Z,981.54
2023-03-25T03:10:41.228Z,981.50
2023-03-25T03:11:41.209Z,981.50
2023-03-25T03:12:41.181Z,981.44
2023-03-25T03:13:41.171Z,981.42
2023-03-25T03:14:41.151Z,981.46
2023-03-25T03:15:40.885Z,981.48
2023-03-25T03:16:41.183Z,981.50
2023-03-25T03:17:41.198Z,981.48
2023-03-25T03:18:41.078Z,981.44
2023-03-25T03:19:41.130Z,981.44
2023-03-25T03:20:41.798Z,981.44
2023-03-25T03:21:41.734Z,981.46
2023-03-25T03:22:41.058Z,981.48
2023-03-25T03:23:41.729Z,981.48
2023-03-25T03:24:41.034Z,981.48
2023-03-25T03:25:41.007Z,981.42
2023-03-25T03:26:41.034Z,981.42
2023-03-25T03:27:40.996Z,981.42
2023-03-25T03:28:40.251Z,981.38
2023-03-25T03:29:40.955Z,981.40
2023-03-25T03:30:40.962Z,981.36
2023-03-25T03:31:52.171Z,981.34
2023-03-25T03:32:41.996Z,981.32
2023-03-25T03:33:40.923Z,981.36
2023-03-25T03:34:41.556Z,981.34
2023-03-25T03:35:40.911Z,981.30
2023-03-25T03:36:41.526Z,981.27
2023-03-25T03:37:40.858Z,981.25
2023-03-25T03:38:41.074Z,981.25
2023-03-25T03:39:40.103Z,981.28
2023-03-25T03:40:40.799Z,981.27
2023-03-25T03:41:40.793Z,981.25
2023-03-25T03:42:40.785Z,981.27
2023-03-25T03:43:40.754Z,981.28
2023-03-25T03:44:40.309Z,981.28
2023-03-25T03:45:40.750Z,981.34
2023-03-25T03:46:40.778Z,981.38
2023-03-25T03:47:40.777Z,981.36
2023-03-25T03:48:40.696Z,981.38
2023-03-25T03:49:40.653Z,981.34
2023-03-25T03:50:40.132Z,981.36
2023-03-25T03:51:40.677Z,981.38
2023-03-25T03:52:40.195Z,981.36
2023-03-25T03:53:40.625Z,981.36
2023-03-25T03:54:40.599Z,981.38
2023-03-25T03:55:40.262Z,981.40
2023-03-25T03:56:40.617Z,981.40
2023-03-25T03:57:40.590Z,981.46
2023-03-25T03:58:40.311Z,981.44
2023-03-25T03:59:40.315Z,981.50
2023-03-25T04:00:39.816Z,981.60
2023-03-25T04:01:40.355Z,981.64
2023-03-25T04:02:40.539Z,981.70
2023-03-25T04:03:40.332Z,981.70
2023-03-25T04:04:40.449Z,981.70
2023-03-25T04:05:41.142Z,981.68
2023-03-25T04:06:40.317Z,981.70
2023-03-25T04:07:40.429Z,981.68
2023-03-25T04:08:40.314Z,981.72
2023-03-25T04:09:40.419Z,981.74
2023-03-25T04:10:40.408Z,981.77
2023-03-25T04:11:40.343Z,981.75
2023-03-25T04:12:40.372Z,981.77
2023-03-25T04:13:40.353Z,981.81
2023-03-25T04:14:40.334Z,981.79
2023-03-25T04:15:41.321Z,981.81
2023-03-25T04:16:40.344Z,981.85
2023-03-25T04:17:41.084Z,981.81
2023-03-25T04:18:40.511Z,981.77
2023-03-25T04:19:39.543Z,981.79
2023-03-25T04:20:40.259Z,981.85
2023-03-25T04:21:40.244Z,981.87
2023-03-25T04:22:39.522Z,981.89
2023-03-25T04:23:40.223Z,981.83
2023-03-25T04:24:40.203Z,981.85
2023-03-25T04:25:40.190Z,981.87
2023-03-25T04:26:40.177Z,981.87
2023-03-25T04:27:40.188Z,981.87
2023-03-25T04:28:40.150Z,981.87
2023-03-25T04:29:40.124Z,981.87
2023-03-25T04:30:40.145Z,981.85
2023-03-25T04:31:40.829Z,981.83
2023-03-25T04:32:40.846Z,981.85
2023-03-25T04:33:40.084Z,981.87
2023-03-25T04:34:40.761Z,981.87
2023-03-25T04:35:40.096Z,981.89
2023-03-25T04:36:40.047Z,981.89
2023-03-25T04:37:40.045Z,981.87
2023-03-25T04:38:40.023Z,981.89
2023-03-25T04:39:40.692Z,981.93
2023-03-25T04:40:39.993Z,981.91
2023-03-25T04:41:40.699Z,981.87
2023-03-25T04:42:39.970Z,981.91
2023-03-25T04:43:39.970Z,981.93
2023-03-25T04:44:39.912Z,981.93
2023-03-25T04:45:39.958Z,981.93
2023-03-25T04:46:39.964Z,981.91
2023-03-25T04:47:39.920Z,981.93
2023-03-25T04:48:39.884Z,981.93
2023-03-25T04:49:39.840Z,981.91
2023-03-25T04:50:39.857Z,981.89
2023-03-25T04:51:39.854Z,981.85
2023-03-25T04:52:39.847Z,981.85
2023-03-25T04:53:39.835Z,981.83
2023-03-25T04:54:39.784Z,981.83
2023-03-25T04:55:39.781Z,981.81
2023-03-25T04:56:40.474Z,981.79
2023-03-25T04:57:39.761Z,981.81
2023-03-25T04:58:39.981Z,981.83
2023-03-25T04:59:39.370Z,981.83
2023-03-25T05:00:39.726Z,981.91
2023-03-25T05:01:39.736Z,981.91
2023-03-25T05:02:39.737Z,981.91
2023-03-25T05:03:39.680Z,981.91
2023-03-25T05:04:39.653Z,981.95
2023-03-25T05:05:39.649Z,981.99
2023-03-25T05:06:39.643Z,981.99
2023-03-25T05:07:39.618Z,982.01
2023-03-25T05:08:39.608Z,981.99
2023-03-25T05:09:39.568Z,981.97
2023-03-25T05:10:38.979Z,981.97
2023-03-25T05:11:39.621Z,981.97
2023-03-25T05:12:39.016Z,981.93
2023-03-25T05:13:39.540Z,981.93
2023-03-25T05:14:39.108Z,981.93
2023-03-25T05:15:39.516Z,981.95
2023-03-25T05:16:40.215Z,981.93
2023-03-25T05:17:39.537Z,981.91
2023-03-25T05:18:39.236Z,981.95
2023-03-25T05:19:39.458Z,981.95
2023-03-25T05:20:39.294Z,981.93
2023-03-25T05:21:40.169Z,981.91
2023-03-25T05:22:39.383Z,981.93
2023-03-25T05:23:39.405Z,981.91
2023-03-25T05:24:40.389Z,981.95
2023-03-25T05:25:39.345Z,981.97
2023-03-25T05:26:38.811Z,981.97
2023-03-25T05:27:39.405Z,981.99
2023-03-25T05:28:39.364Z,981.99
2023-03-25T05:29:40.061Z,982.01
2023-03-25T05:30:40.059Z,982.01
2023-03-25T05:31:40.088Z,982.01
2023-03-25T05:32:39.286Z,982.03
2023-03-25T05:33:40.013Z,982.05
2023-03-25T05:34:39.983Z,982.05
2023-03-25T05:35:40.028Z,982.05
2023-03-25T05:36:39.953Z,982.07
2023-03-25T05:37:39.226Z,982.07
2023-03-25T05:38:39.925Z,982.09
2023-03-25T05:39:39.926Z,982.13
2023-03-25T05:40:39.915Z,982.09
2023-03-25T05:41:39.899Z,982.07
2023-03-25T05:42:39.159Z,982.03
2023-03-25T05:43:39.137Z,982.05
2023-03-25T05:44:39.116Z,982.07
2023-03-25T05:45:39.116Z,982.05
2023-03-25T05:46:39.095Z,982.03
2023-03-25T05:47:39.123Z,982.07
2023-03-25T05:48:39.100Z,982.09
2023-03-25T05:49:39.055Z,982.07
2023-03-25T05:50:39.022Z,982.07
2023-03-25T05:51:39.090Z,982.07
2023-03-25T05:52:39.014Z,982.03
2023-03-25T05:53:38.993Z,981.99
2023-03-25T05:54:38.998Z,981.97
2023-03-25T05:55:39.663Z,981.97
2023-03-25T05:56:39.004Z,981.99
2023-03-25T05:57:38.958Z,981.97
2023-03-25T05:58:38.932Z,981.99
2023-03-25T05:59:38.915Z,982.03
2023-03-25T06:00:38.878Z,982.07
2023-03-25T06:01:38.888Z,982.05
2023-03-25T06:02:39.003Z,982.05
2023-03-25T06:03:38.942Z,982.03
2023-03-25T06:04:38.846Z,982.03
2023-03-25T06:05:38.824Z,982.01
2023-03-25T06:06:39.062Z,982.03
2023-03-25T06:07:38.810Z,982.03
2023-03-25T06:08:39.469Z,982.03
2023-03-25T06:09:38.779Z,982.01
2023-03-25T06:10:38.749Z,982.05
2023-03-25T06:11:39.437Z,982.05
2023-03-25T06:12:38.743Z,982.03
2023-03-25T06:13:38.732Z,982.03
2023-03-25T06:14:38.730Z,982.07
2023-03-25T06:15:38.739Z,982.09
2023-03-25T06:16:38.687Z,982.13
2023-03-25T06:17:38.783Z,982.15
2023-03-25T06:18:38.422Z,982.17
2023-03-25T06:19:38.419Z,982.13
2023-03-25T06:20:38.424Z,982.13
2023-03-25T06:21:38.617Z,982.13
2023-03-25T06:22:39.288Z,982.09
2023-03-25T06:23:38.619Z,982.11
2023-03-25T06:24:38.631Z,982.09
2023-03-25T06:25:38.539Z,982.11
2023-03-25T06:26:38.556Z,982.09
2023-03-25T06:27:38.539Z,982.11
2023-03-25T06:28:39.204Z,982.13
2023-03-25T06:29:38.542Z,982.13
2023-03-25T06:30:38.481Z,982.11
2023-03-25T06:31:37.998Z,982.15
2023-03-25T06:32:38.528Z,982.15
2023-03-25T06:33:42.770Z,982.09
2023-03-25T06:34:39.461Z,982.05
2023-03-25T06:35:38.477Z,982.07
2023-03-25T06:36:38.424Z,982.03
2023-03-25T06:37:38.408Z,982.03
2023-03-25T06:38:38.401Z,982.03
2023-03-25T06:39:39.055Z,982.01
2023-03-25T06:40:38.341Z,981.97
2023-03-25T06:41:38.361Z,981.95
2023-03-25T06:42:39.014Z,981.91
2023-03-25T06:43:38.371Z,981.87
2023-03-25T06:44:38.307Z,981.89
2023-03-25T06:45:38.965Z,981.91
2023-03-25T06:46:39.077Z,981.99
2023-03-25T06:47:41.447Z,981.99
2023-03-25T06:48:38.248Z,981.95
2023-03-25T06:49:38.247Z,982.03
2023-03-25T06:50:38.245Z,982.03
2023-03-25T06:51:38.191Z,982.01
2023-03-25T06:52:38.198Z,981.97
2023-03-25T06:53:38.287Z,981.95
2023-03-25T06:54:38.177Z,981.95
2023-03-25T06:55:38.159Z,981.89
2023-03-25T06:56:38.221Z,981.87
2023-03-25T06:57:38.126Z,981.89
2023-03-25T06:58:38.147Z,981.91
2023-03-25T06:59:38.124Z,981.95
2023-03-25T07:00:38.090Z,981.93
2023-03-25T07:01:38.094Z,981.91
2023-03-25T07:02:38.159Z,981.87
2023-03-25T07:03:37.458Z,981.91
2023-03-25T07:04:38.047Z,981.83
2023-03-25T07:05:38.118Z,981.89
2023-03-25T07:06:37.302Z,981.91
2023-03-25T07:07:37.999Z,981.85
2023-03-25T07:08:37.991Z,981.87
2023-03-25T07:09:38.642Z,981.85
2023-03-25T07:10:37.952Z,981.87
2023-03-25T07:11:37.930Z,981.81
2023-03-25T07:12:37.937Z,981.81
2023-03-25T07:13:37.909Z,981.77
2023-03-25T07:14:37.916Z,981.77
2023-03-25T07:15:38.622Z,981.79
2023-03-25T07:16:38.072Z,981.79
2023-03-25T07:17:37.879Z,981.81
2023-03-25T07:18:37.852Z,981.75
2023-03-25T07:19:37.830Z,981.75
2023-03-25T07:20:37.822Z,981.70
2023-03-25T07:21:38.500Z,981.72
2023-03-25T07:22:37.063Z,981.70
2023-03-25T07:23:37.784Z,981.72
2023-03-25T07:24:37.779Z,981.75
2023-03-25T07:25:37.763Z,981.72
2023-03-25T07:26:38.476Z,981.74
2023-03-25T07:27:37.468Z,981.79
2023-03-25T07:28:37.472Z,981.77
2023-03-25T07:29:37.467Z,981.75
2023-03-25T07:30:37.519Z,981.77
2023-03-25T07:31:38.102Z,981.77
2023-03-25T07:32:38.388Z,981.77
2023-03-25T07:33:37.642Z,981.83
2023-03-25T07:34:37.639Z,981.77
2023-03-25T07:35:37.501Z,981.77
2023-03-25T07:36:37.477Z,981.81
2023-03-25T07:37:37.616Z,981.81
2023-03-25T07:38:37.485Z,981.89
2023-03-25T07:39:37.569Z,981.89
2023-03-25T07:40:37.573Z,981.89
2023-03-25T07:41:37.512Z,981.89
2023-03-25T07:42:37.529Z,981.87
2023-03-25T07:43:37.502Z,981.89
2023-03-25T07:44:38.488Z,981.87
2023-03-25T07:45:43.834Z,981.91
2023-03-25T07:46:38.192Z,981.87
2023-03-25T07:47:38.234Z,981.83
2023-03-25T07:48:38.158Z,981.85
2023-03-25T07:49:38.154Z,981.87
2023-03-25T07:50:38.137Z,981.87
2023-03-25T07:51:37.392Z,981.85
2023-03-25T07:52:38.105Z,981.89
2023-03-25T07:53:37.373Z,981.93
2023-03-25T07:54:38.076Z,981.95
2023-03-25T07:55:38.090Z,981.95
2023-03-25T07:56:37.347Z,981.97
2023-03-25T07:57:38.040Z,981.95
2023-03-25T07:58:38.032Z,981.91
2023-03-25T07:59:37.296Z,981.93
2023-03-25T08:00:37.298Z,981.93
2023-03-25T08:01:38.201Z,981.91
2023-03-25T08:02:37.340Z,981.93
2023-03-25T08:03:37.373Z,981.89
2023-03-25T08:04:37.896Z,981.95
2023-03-25T08:05:37.214Z,981.93
2023-03-25T08:06:37.193Z,981.91
2023-03-25T08:07:37.161Z,981.97
2023-03-25T08:08:37.167Z,981.99
2023-03-25T08:09:37.169Z,981.97
2023-03-25T08:10:37.145Z,981.97
2023-03-25T08:11:37.343Z,981.99
2023-03-25T08:12:37.096Z,982.01
2023-03-25T08:13:37.767Z,981.97
2023-03-25T08:14:37.080Z,981.99
2023-03-25T08:15:36.342Z,981.99
2023-03-25T08:16:37.149Z,981.99
2023-03-25T08:17:37.059Z,982.01
2023-03-25T08:18:37.040Z,981.97
2023-03-25T08:19:37.090Z,981.97
2023-03-25T08:20:36.998Z,981.99
2023-03-25T08:21:36.998Z,982.01
2023-03-25T08:22:37.708Z,981.99
2023-03-25T08:23:36.998Z,982.09
2023-03-25T08:24:36.952Z,982.07
2023-03-25T08:25:36.927Z,982.11
2023-03-25T08:26:36.914Z,982.09
2023-03-25T08:27:36.889Z,982.05
2023-03-25T08:28:36.886Z,982.03
2023-03-25T08:29:36.876Z,982.09
2023-03-25T08:30:36.871Z,982.05
2023-03-25T08:31:36.418Z,982.05
2023-03-25T08:32:36.816Z,982.07
2023-03-25T08:33:36.825Z,982.09
2023-03-25T08:34:36.149Z,982.07
2023-03-25T08:35:36.810Z,982.11
2023-03-25T08:36:36.786Z,982.09
2023-03-25T08:37:36.522Z,982.05
2023-03-25T08:38:36.526Z,982.03
2023-03-25T08:39:36.524Z,982.07
2023-03-25T08:40:36.531Z,982.13
2023-03-25T08:41:36.525Z,982.15
2023-03-25T08:42:36.533Z,982.22
2023-03-25T08:43:36.675Z,982.21
2023-03-25T08:44:36.667Z,982.21
2023-03-25T08:45:36.666Z,982.21
2023-03-25T08:46:37.379Z,982.26
2023-03-25T08:47:35.980Z,982.22
2023-03-25T08:48:36.616Z,982.24
2023-03-25T08:49:37.276Z,982.21
2023-03-25T08:50:36.027Z,982.21
2023-03-25T08:51:36.569Z,982.22
2023-03-25T08:52:36.538Z,982.19
2023-03-25T08:53:36.566Z,982.19
2023-03-25T08:54:37.269Z,982.19
2023-03-25T08:55:36.521Z,982.19
2023-03-25T08:56:36.554Z,982.17
2023-03-25T08:57:36.477Z,982.19
2023-03-25T08:58:36.482Z,982.21
2023-03-25T08:59:36.477Z,982.21
2023-03-25T09:00:36.446Z,982.15
2023-03-25T09:01:36.453Z,982.13
2023-03-25T09:02:36.439Z,982.13
2023-03-25T09:03:36.450Z,982.19
2023-03-25T09:04:36.409Z,982.19
2023-03-25T09:05:36.438Z,982.15
2023-03-25T09:06:47.780Z,982.21
2023-03-25T09:07:37.329Z,982.17
2023-03-25T09:08:36.364Z,982.15
2023-03-25T09:09:36.997Z,982.19
2023-03-25T09:10:38.137Z,982.21
2023-03-25T09:11:37.074Z,982.19
2023-03-25T09:12:36.261Z,982.19
2023-03-25T09:13:36.319Z,982.21
2023-03-25T09:14:36.268Z,982.17
2023-03-25T09:15:36.267Z,982.21
2023-03-25T09:16:36.237Z,982.21
2023-03-25T09:17:36.286Z,982.22
2023-03-25T09:18:36.228Z,982.19
2023-03-25T09:19:36.863Z,982.07
2023-03-25T09:20:36.179Z,982.05
2023-03-25T09:21:36.171Z,982.03
2023-03-25T09:22:36.124Z,982.05
2023-03-25T09:23:36.135Z,982.01
2023-03-25T09:24:36.122Z,982.03
2023-03-25T09:25:36.110Z,982.05
2023-03-25T09:26:36.091Z,982.05
2023-03-25T09:27:35.559Z,982.09
2023-03-25T09:28:36.069Z,982.07
2023-03-25T09:29:36.065Z,982.01
2023-03-25T09:30:36.036Z,981.99
2023-03-25T09:31:36.758Z,981.97
2023-03-25T09:32:36.037Z,981.95
2023-03-25T09:33:36.007Z,981.97
2023-03-25T09:34:35.982Z,981.93
2023-03-25T09:35:35.985Z,981.95
2023-03-25T09:36:35.967Z,981.91
2023-03-25T09:37:35.928Z,981.91
2023-03-25T09:38:35.939Z,981.91
2023-03-25T09:39:35.912Z,981.89
2023-03-25T09:40:35.898Z,981.89
2023-03-25T09:41:35.894Z,981.89
2023-03-25T09:42:35.848Z,981.89
2023-03-25T09:43:35.548Z,981.91
2023-03-25T09:44:35.854Z,981.89
2023-03-25T09:45:35.885Z,981.93
2023-03-25T09:46:35.612Z,981.95
2023-03-25T09:47:35.632Z,981.95
2023-03-25T09:48:35.582Z,981.99
2023-03-25T09:49:35.782Z,981.85
2023-03-25T09:50:35.593Z,981.81
2023-03-25T09:51:35.589Z,981.85
2023-03-25T09:52:35.741Z,981.91
2023-03-25T09:53:35.702Z,981.91
2023-03-25T09:54:35.708Z,981.91
2023-03-25T09:55:35.703Z,981.97
2023-03-25T09:56:37.439Z,982.05
2023-03-25T09:57:36.667Z,982.09
2023-03-25T09:58:35.593Z,982.11
2023-03-25T09:59:35.655Z,982.11
2023-03-25T10:00:35.720Z,982.13
2023-03-25T10:01:35.681Z,982.17
2023-03-25T10:02:35.738Z,982.21
2023-03-25T10:03:36.319Z,982.19
2023-03-25T10:04:35.570Z,982.21
2023-03-25T10:05:35.589Z,982.19
2023-03-25T10:06:35.570Z,982.19
2023-03-25T10:07:36.246Z,982.24
2023-03-25T10:08:36.258Z,982.24
2023-03-25T10:09:36.231Z,982.24
2023-03-25T10:10:36.231Z,982.26
2023-03-25T10:11:36.197Z,982.24
2023-03-25T10:12:36.194Z,982.26
2023-03-25T10:13:35.425Z,982.26
2023-03-25T10:14:35.460Z,982.26
2023-03-25T10:15:35.456Z,982.24
2023-03-25T10:16:36.151Z,982.24
2023-03-25T10:17:35.205Z,982.26
2023-03-25T10:18:36.124Z,982.24
2023-03-25T10:19:35.372Z,982.22
2023-03-25T10:20:35.402Z,982.24
2023-03-25T10:21:35.360Z,982.26
2023-03-25T10:22:36.004Z,982.39
2023-03-25T10:23:36.000Z,982.46
2023-03-25T10:24:35.302Z,982.48
2023-03-25T10:25:35.960Z,982.50
2023-03-25T10:26:35.273Z,982.68
2023-03-25T10:27:35.951Z,982.82
2023-03-25T10:28:35.244Z,982.99
2023-03-25T10:29:35.235Z,983.05
2023-03-25T10:30:35.235Z,983.01
2023-03-25T10:31:35.243Z,982.99
2023-03-25T10:32:35.892Z,983.05
2023-03-25T10:33:35.158Z,983.07
2023-03-25T10:34:36.155Z,983.03
2023-03-25T10:35:35.232Z,983.05
2023-03-25T10:36:35.129Z,983.03
2023-03-25T10:37:35.132Z,983.03
2023-03-25T10:38:35.787Z,982.99
2023-03-25T10:39:35.091Z,983.03
2023-03-25T10:40:35.089Z,983.03
2023-03-25T10:41:34.744Z,983.05
2023-03-25T10:42:35.730Z,983.05
2023-03-25T10:43:35.035Z,983.03
2023-03-25T10:44:35.021Z,983.01
2023-03-25T10:45:35.067Z,983.03
2023-03-25T10:46:35.024Z,982.99
2023-03-25T10:47:34.744Z,983.01
2023-03-25T10:48:34.761Z,982.95
2023-03-25T10:49:34.970Z,982.95
2023-03-25T10:50:34.945Z,982.95
2023-03-25T10:51:34.930Z,982.91
2023-03-25T10:52:34.930Z,982.93
2023-03-25T10:53:34.877Z,982.91
2023-03-25T10:54:34.640Z,982.88
2023-03-25T10:55:34.638Z,982.84
2023-03-25T10:56:34.697Z,982.88
2023-03-25T10:57:34.650Z,982.91
2023-03-25T10:58:34.646Z,982.86
2023-03-25T10:59:34.650Z,982.78
2023-03-25T11:00:34.653Z,982.86
2023-03-25T11:01:34.683Z,982.82
2023-03-25T11:02:34.759Z,982.84
2023-03-25T11:03:34.689Z,982.90
2023-03-25T11:04:35.485Z,982.90
2023-03-25T11:05:34.696Z,982.91
2023-03-25T11:06:34.731Z,982.93
2023-03-25T11:07:34.785Z,982.93
2023-03-25T11:08:34.679Z,982.88
2023-03-25T11:09:33.987Z,982.82
2023-03-25T11:10:34.010Z,982.82
2023-03-25T11:11:34.650Z,982.82
2023-03-25T11:12:42.904Z,982.80
2023-03-25T11:13:35.613Z,982.82
2023-03-25T11:14:34.642Z,982.80
2023-03-25T11:15:34.896Z,982.84
2023-03-25T11:16:34.619Z,982.84
2023-03-25T11:17:34.605Z,982.84
2023-03-25T11:18:33.882Z,982.84
2023-03-25T11:19:34.549Z,982.84
2023-03-25T11:20:34.537Z,982.86
2023-03-25T11:21:34.540Z,982.88
2023-03-25T11:22:34.537Z,982.97
2023-03-25T11:23:34.527Z,982.99
2023-03-25T11:24:34.458Z,983.05
2023-03-25T11:25:34.463Z,983.09
2023-03-25T11:26:33.899Z,983.11
2023-03-25T11:27:34.444Z,983.15
2023-03-25T11:28:34.419Z,983.21
2023-03-25T11:29:34.387Z,983.19
2023-03-25T11:30:34.407Z,983.17
2023-03-25T11:31:34.383Z,983.13
2023-03-25T11:32:34.397Z,983.05
2023-03-25T11:33:34.369Z,983.05
2023-03-25T11:34:33.639Z,983.03
2023-03-25T11:35:34.382Z,982.99
2023-03-25T11:36:34.334Z,982.93
2023-03-25T11:37:34.300Z,982.93
2023-03-25T11:38:34.340Z,982.95
2023-03-25T11:39:34.234Z,982.88
2023-03-25T11:40:34.251Z,982.86
2023-03-25T11:41:34.260Z,982.84
2023-03-25T11:42:33.534Z,982.90
2023-03-25T11:43:34.448Z,982.90
2023-03-25T11:44:34.185Z,982.93
2023-03-25T11:45:35.463Z,982.88
2023-03-25T11:46:34.860Z,982.93
2023-03-25T11:47:34.225Z,982.93
2023-03-25T11:48:34.135Z,982.99
2023-03-25T11:49:34.131Z,983.07
2023-03-25T11:50:33.397Z,983.03
2023-03-25T11:51:34.099Z,982.99
2023-03-25T11:52:34.087Z,982.93
2023-03-25T11:53:34.099Z,982.90
2023-03-25T11:54:34.044Z,982.95
2023-03-25T11:55:34.048Z,982.97
2023-03-25T11:56:34.753Z,982.99
2023-03-25T11:57:34.023Z,982.95
2023-03-25T11:58:33.272Z,982.91
2023-03-25T11:59:33.521Z,982.88
2023-03-25T12:00:34.218Z,982.86
2023-03-25T12:01:33.221Z,982.86
2023-03-25T12:02:34.067Z,982.84
2023-03-25T12:03:33.988Z,982.86
2023-03-25T12:04:33.597Z,982.86
2023-03-25T12:05:33.928Z,982.82
2023-03-25T12:06:33.224Z,982.88
2023-03-25T12:07:33.711Z,982.90
2023-03-25T12:08:33.874Z,982.90
2023-03-25T12:09:33.125Z,982.84
2023-03-25T12:10:33.849Z,982.82
2023-03-25T12:11:33.837Z,982.84
2023-03-25T12:12:33.702Z,982.82
2023-03-25T12:13:33.823Z,982.86
2023-03-25T12:14:33.728Z,982.90
2023-03-25T12:15:34.447Z,982.86
2023-03-25T12:16:33.799Z,982.88
2023-03-25T12:17:33.071Z,982.91
2023-03-25T12:18:33.731Z,982.99
2023-03-25T12:19:34.465Z,982.93
2023-03-25T12:20:33.146Z,982.82
2023-03-25T12:21:33.321Z,982.84
2023-03-25T12:22:33.017Z,982.76
2023-03-25T12:23:33.677Z,982.70
2023-03-25T12:24:34.385Z,982.72
2023-03-25T12:25:34.356Z,982.76
2023-03-25T12:26:33.633Z,982.82
2023-03-25T12:27:34.328Z,982.80
2023-03-25T12:28:33.609Z,982.72